sensor_id;sensor_type;location;lat;lon;timestamp;P1;durP1;ratioP1;P2;durP2;ratioP2
15681;SDS011;7941;50.966;6.978;2023-03-26T00:02:13;22.87;;;5.47;;
15681;SDS011;7941;50.966;6.978;2023-03-26T00:04:39;20.63;;;5.70;;
15681;SDS011;7941;50.966;6.978;2023-03-26T00:07:06;21.37;;;5.73;;
15681;SDS011;7941;50.966;6.978;2023-03-26T00:09:35;30.50;;;6.07;;
15681;SDS011;7941;50.966;6.978;2023-03-26T00:12:02;26.73;;;6.90;;
15681;SDS011;7941;50.966;6.978;2023-03-26T00:14:28;20.63;;;5.50;;
15681;SDS011;7941;50.966;6.978;2023-03-26T00:16:54;27.20;;;6.17;;
15681;SDS011;7941;50.966;6.978;2023-03-26T00:19:20;26.30;;;6.17;;
15681;SDS011;7941;50.966;6.978;2023-03-26T00:21:47;15.73;;;5.50;;
15681;SDS011;7941;50.966;6.978;2023-03-26T00:24:13;24.40;;;6.03;;
15681;SDS011;7941;50.966;6.978;2023-03-26T00:26:40;17.67;;;5.90;;
15681;SDS011;7941;50.966;6.978;2023-03-26T00:29:06;18.30;;;5.43;;
15681;SDS011;7941;50.966;6.978;2023-03-26T00:31:34;20.67;;;4.83;;
15681;SDS011;7941;50.966;6.978;2023-03-26T00:34:03;23.83;;;6.07;;
15681;SDS011;7941;50.966;6.978;2023-03-26T00:36:30;23.20;;;5.70;;
15681;SDS011;7941;50.966;6.978;2023-03-26T00:38:59;21.60;;;5.97;;
15681;SDS011;7941;50.966;6.978;2023-03-26T00:41:29;25.83;;;5.70;;
15681;SDS011;7941;50.966;6.978;2023-03-26T00:43:56;19.07;;;5.60;;
15681;SDS011;7941;50.966;6.978;2023-03-26T00:46:23;24.57;;;5.47;;
15681;SDS011;7941;50.966;6.978;2023-03-26T00:48:50;18.47;;;5.60;;
15681;SDS011;7941;50.966;6.978;2023-03-26T00:51:16;21.47;;;5.40;;
15681;SDS011;7941;50.966;6.978;2023-03-26T00:53:46;21.27;;;5.57;;
15681;SDS011;7941;50.966;6.978;2023-03-26T00:56:13;24.30;;;5.63;;
15681;SDS011;7941;50.966;6.978;2023-03-26T00:58:39;21.50;;;5.70;;
15681;SDS011;7941;50.966;6.978;2023-03-26T01:01:07;19.13;;;4.97;;
15681;SDS011;7941;50.966;6.978;2023-03-26T01:03:34;22.03;;;5.47;;
15681;SDS011;7941;50.966;6.978;2023-03-26T01:06:03;25.60;;;5.83;;
15681;SDS011;7941;50.966;6.978;2023-03-26T01:11:15;22.33;;;5.17;;
15681;SDS011;7941;50.966;6.978;2023-03-26T01:13:49;24.17;;;5.53;;
15681;SDS011;7941;50.966;6.978;2023-03-26T01:17:01;16.13;;;4.97;;
15681;SDS011;7941;50.966;6.978;2023-03-26T01:19:25;21.27;;;5.57;;
15681;SDS011;7941;50.966;6.978;2023-03-26T01:21:48;18.93;;;4.60;;
15681;SDS011;7941;50.966;6.978;2023-03-26T01:24:14;19.10;;;5.60;;
15681;SDS011;7941;50.966;6.978;2023-03-26T01:29:12;18.70;;;5.10;;
15681;SDS011;7941;50.966;6.978;2023-03-26T01:37:20;25.17;;;5.63;;
15681;SDS011;7941;50.966;6.978;2023-03-26T01:39:59;20.27;;;4.67;;
15681;SDS011;7941;50.966;6.978;2023-03-26T01:42:33;19.23;;;4.83;;
15681;SDS011;7941;50.966;6.978;2023-03-26T01:45:12;21.70;;;5.23;;
15681;SDS011;7941;50.966;6.978;2023-03-26T01:47:41;21.67;;;5.17;;
15681;SDS011;7941;50.966;6.978;2023-03-26T01:50:08;22.00;;;4.93;;
15681;SDS011;7941;50.966;6.978;2023-03-26T01:52:34;19.33;;;5.10;;
15681;SDS011;7941;50.966;6.978;2023-03-26T01:55:01;25.60;;;5.47;;
15681;SDS011;7941;50.966;6.978;2023-03-26T02:10:23;14.43;;;4.83;;
15681;SDS011;7941;50.966;6.978;2023-03-26T02:12:51;28.20;;;5.33;;
15681;SDS011;7941;50.966;6.978;2023-03-26T02:15:17;17.53;;;5.33;;
15681;SDS011;7941;50.966;6.978;2023-03-26T02:17:43;18.33;;;5.73;;
15681;SDS011;7941;50.966;6.978;2023-03-26T02:20:11;19.93;;;5.13;;
15681;SDS011;7941;50.966;6.978;2023-03-26T02:22:38;22.00;;;5.27;;
15681;SDS011;7941;50.966;6.978;2023-03-26T02:25:10;17.47;;;5.63;;
15681;SDS011;7941;50.966;6.978;2023-03-26T02:27:37;20.43;;;5.47;;
15681;SDS011;7941;50.966;6.978;2023-03-26T02:30:04;18.10;;;4.37;;
15681;SDS011;7941;50.966;6.978;2023-03-26T02:32:31;18.40;;;4.77;;
15681;SDS011;7941;50.966;6.978;2023-03-26T02:34:59;20.20;;;5.17;;
15681;SDS011;7941;50.966;6.978;2023-03-26T02:37:25;20.00;;;4.97;;
15681;SDS011;7941;50.966;6.978;2023-03-26T02:39:51;15.87;;;5.10;;
15681;SDS011;7941;50.966;6.978;2023-03-26T02:42:17;14.10;;;4.77;;
15681;SDS011;7941;50.966;6.978;2023-03-26T02:44:44;18.30;;;5.27;;
15681;SDS011;7941;50.966;6.978;2023-03-26T02:47:10;21.47;;;4.53;;
15681;SDS011;7941;50.966;6.978;2023-03-26T02:49:36;18.10;;;4.40;;
15681;SDS011;7941;50.966;6.978;2023-03-26T02:52:02;14.47;;;4.97;;
15681;SDS011;7941;50.966;6.978;2023-03-26T02:54:30;18.43;;;5.23;;
15681;SDS011;7941;50.966;6.978;2023-03-26T02:56:57;20.23;;;5.10;;
15681;SDS011;7941;50.966;6.978;2023-03-26T02:59:24;18.73;;;5.10;;
15681;SDS011;7941;50.966;6.978;2023-03-26T03:01:50;16.27;;;4.83;;
15681;SDS011;7941;50.966;6.978;2023-03-26T03:04:16;19.50;;;5.37;;
15681;SDS011;7941;50.966;6.978;2023-03-26T03:06:43;18.50;;;4.37;;
15681;SDS011;7941;50.966;6.978;2023-03-26T03:09:09;17.20;;;4.97;;
15681;SDS011;7941;50.966;6.978;2023-03-26T03:11:37;17.67;;;5.30;;
15681;SDS011;7941;50.966;6.978;2023-03-26T03:14:03;18.20;;;5.20;;
15681;SDS011;7941;50.966;6.978;2023-03-26T03:16:29;18.10;;;5.23;;
15681;SDS011;7941;50.966;6.978;2023-03-26T03:18:56;15.63;;;4.97;;
15681;SDS011;7941;50.966;6.978;2023-03-26T03:21:23;14.43;;;4.77;;
15681;SDS011;7941;50.966;6.978;2023-03-26T03:23:49;14.83;;;5.23;;
15681;SDS011;7941;50.966;6.978;2023-03-26T03:26:17;18.13;;;5.57;;
15681;SDS011;7941;50.966;6.978;2023-03-26T03:28:45;18.53;;;4.97;;
15681;SDS011;7941;50.966;6.978;2023-03-26T03:31:12;15.23;;;4.97;;
15681;SDS011;7941;50.966;6.978;2023-03-26T03:33:38;17.83;;;5.17;;
15681;SDS011;7941;50.966;6.978;2023-03-26T03:36:07;20.17;;;5.23;;
15681;SDS011;7941;50.966;6.978;2023-03-26T03:38:37;19.17;;;5.60;;
15681;SDS011;7941;50.966;6.978;2023-03-26T03:41:04;18.97;;;4.70;;
15681;SDS011;7941;50.966;6.978;2023-03-26T03:43:30;18.23;;;4.97;;
15681;SDS011;7941;50.966;6.978;2023-03-26T03:45:57;13.33;;;4.37;;
15681;SDS011;7941;50.966;6.978;2023-03-26T03:48:23;18.13;;;4.80;;
15681;SDS011;7941;50.966;6.978;2023-03-26T03:50:50;15.10;;;4.33;;
15681;SDS011;7941;50.966;6.978;2023-03-26T03:53:17;20.13;;;5.30;;
15681;SDS011;7941;50.966;6.978;2023-03-26T03:55:44;19.90;;;5.03;;
15681;SDS011;7941;50.966;6.978;2023-03-26T03:58:20;17.87;;;4.40;;
15681;SDS011;7941;50.966;6.978;2023-03-26T04:00:50;23.50;;;5.50;;
15681;SDS011;7941;50.966;6.978;2023-03-26T04:03:17;22.53;;;6.87;;
15681;SDS011;7941;50.966;6.978;2023-03-26T04:05:44;17.63;;;5.77;;
15681;SDS011;7941;50.966;6.978;2023-03-26T04:08:16;15.17;;;6.63;;
15681;SDS011;7941;50.966;6.978;2023-03-26T04:10:43;19.37;;;6.00;;
15681;SDS011;7941;50.966;6.978;2023-03-26T04:13:10;24.63;;;6.83;;
15681;SDS011;7941;50.966;6.978;2023-03-26T04:15:37;18.60;;;4.67;;
15681;SDS011;7941;50.966;6.978;2023-03-26T04:18:03;21.93;;;4.73;;
15681;SDS011;7941;50.966;6.978;2023-03-26T04:20:34;25.70;;;4.87;;
15681;SDS011;7941;50.966;6.978;2023-03-26T04:23:01;16.10;;;4.40;;
15681;SDS011;7941;50.966;6.978;2023-03-26T04:25:28;21.43;;;5.67;;
15681;SDS011;7941;50.966;6.978;2023-03-26T04:27:55;21.57;;;5.43;;
15681;SDS011;7941;50.966;6.978;2023-03-26T04:30:22;19.47;;;5.70;;
15681;SDS011;7941;50.966;6.978;2023-03-26T04:32:48;18.73;;;7.27;;
15681;SDS011;7941;50.966;6.978;2023-03-26T04:35:15;18.60;;;7.03;;
15681;SDS011;7941;50.966;6.978;2023-03-26T04:37:42;18.50;;;6.53;;
15681;SDS011;7941;50.966;6.978;2023-03-26T04:40:14;20.20;;;5.23;;
15681;SDS011;7941;50.966;6.978;2023-03-26T04:42:42;28.53;;;6.37;;
15681;SDS011;7941;50.966;6.978;2023-03-26T04:45:11;18.20;;;4.70;;
15681;SDS011;7941;50.966;6.978;2023-03-26T04:47:37;17.97;;;4.90;;
15681;SDS011;7941;50.966;6.978;2023-03-26T04:50:05;17.37;;;4.60;;
15681;SDS011;7941;50.966;6.978;2023-03-26T04:52:31;17.30;;;4.30;;
15681;SDS011;7941;50.966;6.978;2023-03-26T04:54:57;16.00;;;4.33;;
15681;SDS011;7941;50.966;6.978;2023-03-26T04:57:35;18.53;;;4.93;;
15681;SDS011;7941;50.966;6.978;2023-03-26T05:00:03;23.33;;;5.50;;
15681;SDS011;7941;50.966;6.978;2023-03-26T05:02:39;15.90;;;5.00;;
15681;SDS011;7941;50.966;6.978;2023-03-26T05:05:06;19.30;;;5.03;;
15681;SDS011;7941;50.966;6.978;2023-03-26T05:07:32;20.60;;;5.87;;
15681;SDS011;7941;50.966;6.978;2023-03-26T05:09:58;15.17;;;6.20;;
15681;SDS011;7941;50.966;6.978;2023-03-26T05:12:27;21.70;;;4.80;;
15681;SDS011;7941;50.966;6.978;2023-03-26T05:14:53;24.20;;;10.83;;
15681;SDS011;7941;50.966;6.978;2023-03-26T05:17:20;21.50;;;5.50;;
15681;SDS011;7941;50.966;6.978;2023-03-26T05:19:47;16.93;;;4.93;;
15681;SDS011;7941;50.966;6.978;2023-03-26T05:22:13;20.03;;;5.97;;
15681;SDS011;7941;50.966;6.978;2023-03-26T05:24:40;15.93;;;5.73;;
15681;SDS011;7941;50.966;6.978;2023-03-26T05:27:06;21.00;;;5.27;;
15681;SDS011;7941;50.966;6.978;2023-03-26T05:29:32;18.63;;;5.23;;
15681;SDS011;7941;50.966;6.978;2023-03-26T05:31:58;13.87;;;4.67;;
15681;SDS011;7941;50.966;6.978;2023-03-26T05:34:24;17.53;;;5.47;;
15681;SDS011;7941;50.966;6.978;2023-03-26T05:36:51;13.40;;;4.30;;
15681;SDS011;7941;50.966;6.978;2023-03-26T05:39:17;20.30;;;6.90;;
15681;SDS011;7941;50.966;6.978;2023-03-26T05:41:46;21.03;;;5.77;;
15681;SDS011;7941;50.966;6.978;2023-03-26T05:44:13;19.33;;;6.53;;
15681;SDS011;7941;50.966;6.978;2023-03-26T05:46:39;15.47;;;6.23;;
15681;SDS011;7941;50.966;6.978;2023-03-26T05:49:05;15.70;;;6.60;;
15681;SDS011;7941;50.966;6.978;2023-03-26T05:51:31;18.83;;;6.13;;
15681;SDS011;7941;50.966;6.978;2023-03-26T05:53:57;20.27;;;5.43;;
15681;SDS011;7941;50.966;6.978;2023-03-26T05:56:24;16.10;;;5.77;;
15681;SDS011;7941;50.966;6.978;2023-03-26T05:58:50;16.10;;;6.23;;
15681;SDS011;7941;50.966;6.978;2023-03-26T06:01:16;19.70;;;5.33;;
15681;SDS011;7941;50.966;6.978;2023-03-26T06:03:44;19.33;;;6.33;;
15681;SDS011;7941;50.966;6.978;2023-03-26T06:06:11;21.57;;;6.07;;
15681;SDS011;7941;50.966;6.978;2023-03-26T06:08:40;23.37;;;6.17;;
15681;SDS011;7941;50.966;6.978;2023-03-26T06:11:06;20.60;;;6.47;;
15681;SDS011;7941;50.966;6.978;2023-03-26T06:13:32;23.00;;;6.73;;
15681;SDS011;7941;50.966;6.978;2023-03-26T06:15:59;25.37;;;6.20;;
15681;SDS011;7941;50.966;6.978;2023-03-26T06:18:25;18.60;;;6.30;;
15681;SDS011;7941;50.966;6.978;2023-03-26T06:20:51;23.83;;;6.57;;
15681;SDS011;7941;50.966;6.978;2023-03-26T06:23:18;18.80;;;6.23;;
15681;SDS011;7941;50.966;6.978;2023-03-26T06:25:44;20.47;;;6.70;;
15681;SDS011;7941;50.966;6.978;2023-03-26T06:28:11;21.57;;;6.60;;
15681;SDS011;7941;50.966;6.978;2023-03-26T06:30:37;24.40;;;6.87;;
15681;SDS011;7941;50.966;6.978;2023-03-26T06:33:03;21.73;;;7.70;;
15681;SDS011;7941;50.966;6.978;2023-03-26T06:35:29;20.67;;;6.70;;
15681;SDS011;7941;50.966;6.978;2023-03-26T06:37:56;19.43;;;7.43;;
15681;SDS011;7941;50.966;6.978;2023-03-26T06:40:22;23.47;;;7.13;;
15681;SDS011;7941;50.966;6.978;2023-03-26T06:42:49;15.00;;;7.03;;
15681;SDS011;7941;50.966;6.978;2023-03-26T06:45:15;19.83;;;6.87;;
15681;SDS011;7941;50.966;6.978;2023-03-26T06:47:41;25.73;;;7.67;;
15681;SDS011;7941;50.966;6.978;2023-03-26T06:50:08;24.43;;;7.50;;
15681;SDS011;7941;50.966;6.978;2023-03-26T06:52:36;22.77;;;6.70;;
15681;SDS011;7941;50.966;6.978;2023-03-26T06:55:02;19.70;;;7.40;;
15681;SDS011;7941;50.966;6.978;2023-03-26T06:57:30;25.63;;;6.90;;
15681;SDS011;7941;50.966;6.978;2023-03-26T06:59:57;23.53;;;7.60;;
15681;SDS011;7941;50.966;6.978;2023-03-26T07:02:23;18.03;;;7.43;;
15681;SDS011;7941;50.966;6.978;2023-03-26T07:04:49;26.47;;;7.63;;
15681;SDS011;7941;50.966;6.978;2023-03-26T07:07:15;34.03;;;7.57;;
15681;SDS011;7941;50.966;6.978;2023-03-26T07:09:44;19.57;;;7.53;;
15681;SDS011;7941;50.966;6.978;2023-03-26T07:12:12;30.23;;;11.50;;
15681;SDS011;7941;50.966;6.978;2023-03-26T07:14:38;20.10;;;7.53;;
15681;SDS011;7941;50.966;6.978;2023-03-26T07:17:04;24.60;;;8.90;;
15681;SDS011;7941;50.966;6.978;2023-03-26T07:19:30;28.03;;;7.40;;
15681;SDS011;7941;50.966;6.978;2023-03-26T07:21:56;18.37;;;6.30;;
15681;SDS011;7941;50.966;6.978;2023-03-26T07:24:23;21.60;;;7.10;;
15681;SDS011;7941;50.966;6.978;2023-03-26T07:27:07;20.33;;;6.20;;
15681;SDS011;7941;50.966;6.978;2023-03-26T07:32:07;23.67;;;7.07;;
15681;SDS011;7941;50.966;6.978;2023-03-26T07:37:04;25.03;;;13.97;;
15681;SDS011;7941;50.966;6.978;2023-03-26T07:40:07;17.33;;;7.27;;
15681;SDS011;7941;50.966;6.978;2023-03-26T07:47:22;19.53;;;6.83;;
15681;SDS011;7941;50.966;6.978;2023-03-26T07:49:50;22.27;;;6.97;;
15681;SDS011;7941;50.966;6.978;2023-03-26T07:52:17;22.80;;;7.67;;
15681;SDS011;7941;50.966;6.978;2023-03-26T07:54:43;26.50;;;7.93;;
15681;SDS011;7941;50.966;6.978;2023-03-26T08:13:04;17.60;;;7.67;;
15681;SDS011;7941;50.966;6.978;2023-03-26T08:21:07;21.47;;;7.80;;
15681;SDS011;7941;50.966;6.978;2023-03-26T08:23:46;23.10;;;8.23;;
15681;SDS011;7941;50.966;6.978;2023-03-26T08:31:40;24.77;;;8.20;;
15681;SDS011;7941;50.966;6.978;2023-03-26T08:34:09;24.47;;;8.30;;
15681;SDS011;7941;50.966;6.978;2023-03-26T08:36:36;21.77;;;8.43;;
15681;SDS011;7941;50.966;6.978;2023-03-26T08:39:03;24.97;;;8.67;;
15681;SDS011;7941;50.966;6.978;2023-03-26T08:56:58;0.50;;;0.50;;
15681;SDS011;7941;50.966;6.978;2023-03-26T09:03:06;0.50;;;0.50;;
15681;SDS011;7941;50.966;6.978;2023-03-26T09:26:35;0.40;;;0.40;;
15681;SDS011;7941;50.966;6.978;2023-03-26T09:31:43;0.23;;;0.23;;
15681;SDS011;7941;50.966;6.978;2023-03-26T09:50:17;0.40;;;0.40;;
15681;SDS011;7941;50.966;6.978;2023-03-26T09:55:18;0.20;;;0.20;;
15681;SDS011;7941;50.966;6.978;2023-03-26T10:00:28;2.63;;;0.87;;
15681;SDS011;7941;50.966;6.978;2023-03-26T10:03:06;0.20;;;0.20;;
15681;SDS011;7941;50.966;6.978;2023-03-26T10:08:23;0.33;;;0.33;;
15681;SDS011;7941;50.966;6.978;2023-03-26T10:26:40;0.30;;;0.30;;
15681;SDS011;7941;50.966;6.978;2023-03-26T10:29:19;0.30;;;0.30;;
15681;SDS011;7941;50.966;6.978;2023-03-26T10:32:52;0.20;;;0.20;;
15681;SDS011;7941;50.966;6.978;2023-03-26T10:53:01;0.60;;;0.60;;
15681;SDS011;7941;50.966;6.978;2023-03-26T10:55:39;0.87;;;0.87;;
15681;SDS011;7941;50.966;6.978;2023-03-26T11:01:00;0.40;;;0.40;;
15681;SDS011;7941;50.966;6.978;2023-03-26T11:11:07;0.43;;;0.43;;
15681;SDS011;7941;50.966;6.978;2023-03-26T11:16:24;1.90;;;1.80;;
15681;SDS011;7941;50.966;6.978;2023-03-26T11:18:55;0.40;;;0.40;;
15681;SDS011;7941;50.966;6.978;2023-03-26T11:21:25;0.30;;;0.30;;
15681;SDS011;7941;50.966;6.978;2023-03-26T11:27:06;0.20;;;0.20;;
15681;SDS011;7941;50.966;6.978;2023-03-26T11:34:41;1.63;;;1.53;;
15681;SDS011;7941;50.966;6.978;2023-03-26T11:37:14;0.67;;;0.67;;
15681;SDS011;7941;50.966;6.978;2023-03-26T11:39:47;0.30;;;0.30;;
15681;SDS011;7941;50.966;6.978;2023-03-26T11:42:15;0.20;;;0.20;;
15681;SDS011;7941;50.966;6.978;2023-03-26T11:44:45;0.60;;;0.60;;
15681;SDS011;7941;50.966;6.978;2023-03-26T11:47:14;0.40;;;0.40;;
15681;SDS011;7941;50.966;6.978;2023-03-26T11:49:41;0.30;;;0.30;;
15681;SDS011;7941;50.966;6.978;2023-03-26T11:52:10;0.30;;;0.30;;
15681;SDS011;7941;50.966;6.978;2023-03-26T11:54:36;15.20;;;11.17;;
15681;SDS011;7941;50.966;6.978;2023-03-26T11:57:10;25.90;;;17.53;;
15681;SDS011;7941;50.966;6.978;2023-03-26T11:59:43;36.17;;;24.90;;
15681;SDS011;7941;50.966;6.978;2023-03-26T12:04:38;21.93;;;14.23;;
15681;SDS011;7941;50.966;6.978;2023-03-26T12:07:14;18.27;;;14.73;;
15681;SDS011;7941;50.966;6.978;2023-03-26T12:10:19;18.10;;;14.27;;
15681;SDS011;7941;50.966;6.978;2023-03-26T12:12:38;23.10;;;17.53;;
15681;SDS011;7941;50.966;6.978;2023-03-26T12:15:12;18.07;;;15.13;;
15681;SDS011;7941;50.966;6.978;2023-03-26T12:17:39;26.57;;;17.40;;
15681;SDS011;7941;50.966;6.978;2023-03-26T12:22:51;22.77;;;15.60;;
15681;SDS011;7941;50.966;6.978;2023-03-26T12:27:56;24.03;;;15.47;;
15681;SDS011;7941;50.966;6.978;2023-03-26T12:32:58;20.73;;;15.57;;
15681;SDS011;7941;50.966;6.978;2023-03-26T12:35:29;19.87;;;15.37;;
15681;SDS011;7941;50.966;6.978;2023-03-26T12:38:41;23.83;;;19.53;;
15681;SDS011;7941;50.966;6.978;2023-03-26T12:40:43;30.73;;;21.50;;
15681;SDS011;7941;50.966;6.978;2023-03-26T12:43:26;21.27;;;14.40;;
15681;SDS011;7941;50.966;6.978;2023-03-26T12:45:54;28.33;;;20.67;;
15681;SDS011;7941;50.966;6.978;2023-03-26T12:48:22;22.87;;;16.70;;
15681;SDS011;7941;50.966;6.978;2023-03-26T12:56:27;25.13;;;19.97;;
15681;SDS011;7941;50.966;6.978;2023-03-26T13:01:36;21.63;;;16.40;;
15681;SDS011;7941;50.966;6.978;2023-03-26T13:24:44;32.07;;;25.77;;
15681;SDS011;7941;50.966;6.978;2023-03-26T13:32:44;25.53;;;20.90;;
15681;SDS011;7941;50.966;6.978;2023-03-26T13:35:22;21.37;;;18.60;;
15681;SDS011;7941;50.966;6.978;2023-03-26T13:48:11;23.40;;;19.97;;
15681;SDS011;7941;50.966;6.978;2023-03-26T13:50:40;28.17;;;25.13;;
15681;SDS011;7941;50.966;6.978;2023-03-26T13:53:20;22.30;;;19.90;;
15681;SDS011;7941;50.966;6.978;2023-03-26T13:55:49;24.03;;;21.63;;
15681;SDS011;7941;50.966;6.978;2023-03-26T14:01:08;22.53;;;20.20;;
15681;SDS011;7941;50.966;6.978;2023-03-26T14:08:55;14.63;;;13.33;;
15681;SDS011;7941;50.966;6.978;2023-03-26T14:11:29;15.73;;;12.70;;
15681;SDS011;7941;50.966;6.978;2023-03-26T14:14:01;12.20;;;11.07;;
15681;SDS011;7941;50.966;6.978;2023-03-26T14:16:32;12.37;;;11.07;;
15681;SDS011;7941;50.966;6.978;2023-03-26T14:21:40;10.07;;;9.07;;
15681;SDS011;7941;50.966;6.978;2023-03-26T14:29:36;8.03;;;7.20;;
15681;SDS011;7941;50.966;6.978;2023-03-26T14:37:46;5.57;;;5.17;;
15681;SDS011;7941;50.966;6.978;2023-03-26T14:42:49;4.10;;;3.73;;
15681;SDS011;7941;50.966;6.978;2023-03-26T14:47:58;4.73;;;4.20;;
15681;SDS011;7941;50.966;6.978;2023-03-26T14:53:20;3.93;;;3.20;;
15681;SDS011;7941;50.966;6.978;2023-03-26T15:10:05;3.30;;;3.00;;
15681;SDS011;7941;50.966;6.978;2023-03-26T15:33:57;2.10;;;1.87;;
15681;SDS011;7941;50.966;6.978;2023-03-26T15:49:48;2.80;;;2.60;;
15681;SDS011;7941;50.966;6.978;2023-03-26T15:52:17;3.50;;;2.67;;
15681;SDS011;7941;50.966;6.978;2023-03-26T15:54:47;4.20;;;3.43;;
15681;SDS011;7941;50.966;6.978;2023-03-26T16:09:59;3.00;;;2.80;;
15681;SDS011;7941;50.966;6.978;2023-03-26T16:12:52;2.20;;;2.10;;
15681;SDS011;7941;50.966;6.978;2023-03-26T16:20:32;3.00;;;2.80;;
15681;SDS011;7941;50.966;6.978;2023-03-26T16:22:59;3.00;;;2.70;;
15681;SDS011;7941;50.966;6.978;2023-03-26T16:25:31;3.53;;;3.23;;
15681;SDS011;7941;50.966;6.978;2023-03-26T16:30:37;2.17;;;1.97;;
15681;SDS011;7941;50.966;6.978;2023-03-26T16:33:08;2.60;;;2.40;;
15681;SDS011;7941;50.966;6.978;2023-03-26T16:38:23;3.30;;;3.00;;
15681;SDS011;7941;50.966;6.978;2023-03-26T16:43:36;9.20;;;7.60;;
15681;SDS011;7941;50.966;6.978;2023-03-26T16:46:16;4.57;;;4.17;;
15681;SDS011;7941;50.966;6.978;2023-03-26T16:51:40;4.43;;;4.03;;
15681;SDS011;7941;50.966;6.978;2023-03-26T17:04:45;4.37;;;3.97;;
15681;SDS011;7941;50.966;6.978;2023-03-26T17:14:54;7.13;;;5.90;;
15681;SDS011;7941;50.966;6.978;2023-03-26T17:20:18;6.03;;;4.90;;
15681;SDS011;7941;50.966;6.978;2023-03-26T17:23:13;9.20;;;5.57;;
15681;SDS011;7941;50.966;6.978;2023-03-26T17:36:15;9.13;;;7.00;;
15681;SDS011;7941;50.966;6.978;2023-03-26T17:41:13;3.73;;;3.43;;
15681;SDS011;7941;50.966;6.978;2023-03-26T17:53:52;11.97;;;9.73;;
15681;SDS011;7941;50.966;6.978;2023-03-26T17:56:20;11.17;;;8.83;;
15681;SDS011;7941;50.966;6.978;2023-03-26T17:58:49;13.43;;;9.73;;
15681;SDS011;7941;50.966;6.978;2023-03-26T18:01:36;13.77;;;10.23;;
15681;SDS011;7941;50.966;6.978;2023-03-26T18:04:07;16.13;;;9.37;;
15681;SDS011;7941;50.966;6.978;2023-03-26T18:06:49;13.50;;;10.87;;
15681;SDS011;7941;50.966;6.978;2023-03-26T18:16:48;34.50;;;23.73;;
15681;SDS011;7941;50.966;6.978;2023-03-26T18:19:16;27.63;;;16.30;;
15681;SDS011;7941;50.966;6.978;2023-03-26T18:21:47;34.53;;;18.63;;
15681;SDS011;7941;50.966;6.978;2023-03-26T18:24:30;29.10;;;15.83;;
15681;SDS011;7941;50.966;6.978;2023-03-26T18:26:58;29.90;;;16.00;;
15681;SDS011;7941;50.966;6.978;2023-03-26T18:29:27;23.83;;;11.30;;
15681;SDS011;7941;50.966;6.978;2023-03-26T18:31:55;16.03;;;6.43;;
15681;SDS011;7941;50.966;6.978;2023-03-26T18:34:22;26.40;;;13.30;;
15681;SDS011;7941;50.966;6.978;2023-03-26T18:36:56;9.97;;;6.53;;
15681;SDS011;7941;50.966;6.978;2023-03-26T18:39:25;24.57;;;13.30;;
15681;SDS011;7941;50.966;6.978;2023-03-26T18:41:51;24.10;;;11.97;;
15681;SDS011;7941;50.966;6.978;2023-03-26T18:44:17;22.13;;;13.30;;
15681;SDS011;7941;50.966;6.978;2023-03-26T18:46:45;30.73;;;13.13;;
15681;SDS011;7941;50.966;6.978;2023-03-26T18:49:11;22.97;;;12.23;;
15681;SDS011;7941;50.966;6.978;2023-03-26T18:51:39;32.07;;;12.33;;
15681;SDS011;7941;50.966;6.978;2023-03-26T18:54:05;20.70;;;11.67;;
15681;SDS011;7941;50.966;6.978;2023-03-26T18:56:37;20.53;;;11.13;;
15681;SDS011;7941;50.966;6.978;2023-03-26T19:02:01;21.13;;;8.43;;
15681;SDS011;7941;50.966;6.978;2023-03-26T19:04:29;22.03;;;10.70;;
15681;SDS011;7941;50.966;6.978;2023-03-26T19:06:58;12.77;;;6.83;;
15681;SDS011;7941;50.966;6.978;2023-03-26T19:09:25;29.30;;;13.07;;
15681;SDS011;7941;50.966;6.978;2023-03-26T19:11:53;27.57;;;12.13;;
15681;SDS011;7941;50.966;6.978;2023-03-26T19:14:23;33.17;;;13.90;;
15681;SDS011;7941;50.966;6.978;2023-03-26T19:16:52;25.70;;;13.57;;
15681;SDS011;7941;50.966;6.978;2023-03-26T19:19:21;28.57;;;15.00;;
15681;SDS011;7941;50.966;6.978;2023-03-26T19:21:49;25.00;;;13.30;;
15681;SDS011;7941;50.966;6.978;2023-03-26T19:24:16;24.27;;;12.50;;
15681;SDS011;7941;50.966;6.978;2023-03-26T19:26:43;28.10;;;14.07;;
15681;SDS011;7941;50.966;6.978;2023-03-26T19:29:11;33.40;;;16.07;;
15681;SDS011;7941;50.966;6.978;2023-03-26T19:31:38;36.30;;;14.07;;
15681;SDS011;7941;50.966;6.978;2023-03-26T19:39:16;14.03;;;7.27;;
15681;SDS011;7941;50.966;6.978;2023-03-26T19:41:43;11.67;;;4.63;;
15681;SDS011;7941;50.966;6.978;2023-03-26T19:46:42;21.23;;;8.67;;
15681;SDS011;7941;50.966;6.978;2023-03-26T19:52:01;18.07;;;8.63;;
15681;SDS011;7941;50.966;6.978;2023-03-26T19:54:27;21.33;;;8.27;;
15681;SDS011;7941;50.966;6.978;2023-03-26T19:56:54;15.70;;;7.70;;
15681;SDS011;7941;50.966;6.978;2023-03-26T19:59:20;20.53;;;7.57;;
15681;SDS011;7941;50.966;6.978;2023-03-26T20:01:46;15.17;;;6.90;;
15681;SDS011;7941;50.966;6.978;2023-03-26T20:04:13;23.70;;;7.40;;
15681;SDS011;7941;50.966;6.978;2023-03-26T20:06:39;24.20;;;9.10;;
15681;SDS011;7941;50.966;6.978;2023-03-26T20:09:07;22.00;;;8.07;;
15681;SDS011;7941;50.966;6.978;2023-03-26T20:11:35;17.50;;;7.40;;
15681;SDS011;7941;50.966;6.978;2023-03-26T20:14:06;23.13;;;7.47;;
15681;SDS011;7941;50.966;6.978;2023-03-26T20:16:36;21.33;;;6.93;;
15681;SDS011;7941;50.966;6.978;2023-03-26T20:19:02;15.73;;;5.27;;
15681;SDS011;7941;50.966;6.978;2023-03-26T20:21:29;18.67;;;5.60;;
15681;SDS011;7941;50.966;6.978;2023-03-26T20:23:56;13.83;;;6.73;;
15681;SDS011;7941;50.966;6.978;2023-03-26T20:26:23;21.00;;;5.43;;
15681;SDS011;7941;50.966;6.978;2023-03-26T20:28:50;15.43;;;5.30;;
15681;SDS011;7941;50.966;6.978;2023-03-26T20:31:23;19.43;;;5.17;;
15681;SDS011;7941;50.966;6.978;2023-03-26T20:33:51;14.80;;;3.93;;
15681;SDS011;7941;50.966;6.978;2023-03-26T20:36:17;13.47;;;4.93;;
15681;SDS011;7941;50.966;6.978;2023-03-26T20:38:44;17.37;;;5.77;;
15681;SDS011;7941;50.966;6.978;2023-03-26T20:41:18;10.17;;;4.63;;
15681;SDS011;7941;50.966;6.978;2023-03-26T20:43:47;14.13;;;4.07;;
15681;SDS011;7941;50.966;6.978;2023-03-26T20:46:18;10.97;;;4.87;;
15681;SDS011;7941;50.966;6.978;2023-03-26T20:48:44;18.67;;;4.50;;
15681;SDS011;7941;50.966;6.978;2023-03-26T20:51:11;13.97;;;5.03;;
15681;SDS011;7941;50.966;6.978;2023-03-26T20:53:38;10.60;;;3.80;;
15681;SDS011;7941;50.966;6.978;2023-03-26T20:56:18;23.03;;;4.93;;
15681;SDS011;7941;50.966;6.978;2023-03-26T20:58:45;15.83;;;3.83;;
15681;SDS011;7941;50.966;6.978;2023-03-26T21:01:13;16.50;;;4.30;;
15681;SDS011;7941;50.966;6.978;2023-03-26T21:03:44;16.27;;;4.63;;
15681;SDS011;7941;50.966;6.978;2023-03-26T21:06:11;13.70;;;4.37;;
15681;SDS011;7941;50.966;6.978;2023-03-26T21:08:38;13.07;;;3.90;;
15681;SDS011;7941;50.966;6.978;2023-03-26T21:11:12;19.03;;;3.83;;
15681;SDS011;7941;50.966;6.978;2023-03-26T21:13:45;13.23;;;4.07;;
15681;SDS011;7941;50.966;6.978;2023-03-26T21:16:13;13.40;;;3.87;;
15681;SDS011;7941;50.966;6.978;2023-03-26T21:18:39;15.20;;;3.87;;
15681;SDS011;7941;50.966;6.978;2023-03-26T21:23:36;16.67;;;3.73;;
15681;SDS011;7941;50.966;6.978;2023-03-26T21:28:43;11.47;;;3.63;;
15681;SDS011;7941;50.966;6.978;2023-03-26T21:31:15;15.83;;;3.87;;
15681;SDS011;7941;50.966;6.978;2023-03-26T21:33:45;11.47;;;3.30;;
15681;SDS011;7941;50.966;6.978;2023-03-26T21:36:12;11.57;;;3.63;;
15681;SDS011;7941;50.966;6.978;2023-03-26T21:38:39;11.27;;;2.83;;
15681;SDS011;7941;50.966;6.978;2023-03-26T21:43:48;13.37;;;2.90;;
15681;SDS011;7941;50.966;6.978;2023-03-26T21:46:14;9.10;;;2.80;;
15681;SDS011;7941;50.966;6.978;2023-03-26T21:48:41;14.23;;;3.47;;
15681;SDS011;7941;50.966;6.978;2023-03-26T21:51:09;12.13;;;3.83;;
15681;SDS011;7941;50.966;6.978;2023-03-26T21:53:39;16.43;;;4.00;;
15681;SDS011;7941;50.966;6.978;2023-03-26T21:59:00;12.47;;;3.87;;
15681;SDS011;7941;50.966;6.978;2023-03-26T22:06:32;10.20;;;3.63;;